Terminal Aerodrome Forecast
Issued by NWS Wilmington, OH

Home | Current Version | Previous Version | Text Only | Print | Product List | Glossary On
Versions: 1 2 3 4 5 6 7 8 9 10 11 12 13 14 15 16 17 18 19 20 21 22 23 24 25 26 27 28 29 30 31 32 33 34 35
827
FTUS41 KILN 291735
TAFILN
TAF
KILN 291735Z 2918/3018 28006KT 6SM BR FEW015 SCT040
      TEMPO 2918/2920 BKN020
     FM292000 34007KT P6SM OVC100
     FM301200 07009KT P6SM OVC050
     FM301500 10009KT 4SM -SHRA BR OVC025=

USA.gov is the U.S. government's official web portal to all federal, state and local government web resources and services.